Time;durP1;ratioP1;P1;durP2;ratioP2;P2;SDS_P1;SDS_P2;PMS_P1;PMS_P2;Temp;Humidity;BMP_temperature;BMP_pressure;BME280_temperature;BME280_humidity;BME280_pressure;Samples;Min_cycle;Max_cycle;Signal;HPM_P1;HPM_P2
2023/02/28 00:00:38;;;;;;;;;;;0.00;99.90;;;;;;4991052;28;20087;-71
2023/02/28 00:03:07;;;;;;;11.60;6.25;;;-0.10;99.90;;;;;;5020506;28;19979;-71
2023/02/28 00:05:34;;;;;;;;;;;0.00;99.90;;;;;;5017867;28;20458;-71
2023/02/28 00:08:00;;;;;;;9.87;5.57;;;0.00;99.90;;;;;;5015085;28;20070;-71
2023/02/28 00:10:27;;;;;;;12.98;6.63;;;-0.20;99.90;;;;;;5020225;28;20500;-71
2023/02/28 00:12:56;;;;;;;13.60;6.28;;;-0.10;99.90;;;;;;5007024;28;20076;-71
2023/02/28 00:15:22;;;;;;;13.82;6.13;;;-0.10;99.90;;;;;;5012508;28;20042;-71
2023/02/28 00:17:48;;;;;;;11.77;6.05;;;-0.10;99.90;;;;;;5019378;28;20129;-71
2023/02/28 00:20:15;;;;;;;13.07;6.57;;;-0.10;99.90;;;;;;5010271;28;20501;-71
2023/02/28 00:22:46;;;;;;;12.32;6.35;;;-0.30;99.90;;;;;;4994433;28;20578;-71
2023/02/28 00:25:13;;;;;;;13.20;6.22;;;-0.30;99.90;;;;;;5029111;28;20041;-71
2023/02/28 00:27:39;;;;;;;10.93;6.05;;;-0.20;99.90;;;;;;5028437;28;20037;-71
2023/02/28 00:30:06;;;;;;;11.40;5.25;;;-0.10;99.90;;;;;;5005041;28;21142;-71
2023/02/28 00:32:31;;;;;;;12.63;6.38;;;-0.10;99.90;;;;;;4985866;28;20065;-71
2023/02/28 00:34:57;;;;;;;11.82;6.65;;;-0.20;99.90;;;;;;5001152;28;20088;-71
2023/02/28 00:37:23;;;;;;;11.35;5.72;;;-0.20;99.90;;;;;;5009636;28;20087;-71
2023/02/28 00:39:49;;;;;;;13.13;6.25;;;-0.20;99.90;;;;;;5020925;28;20123;-71
2023/02/28 00:42:14;;;;;;;10.63;5.43;;;-0.10;99.90;;;;;;5024527;28;20103;-71
2023/02/28 00:44:40;;;;;;;11.50;5.93;;;-0.20;99.90;;;;;;5023225;28;20050;-71
2023/02/28 00:47:06;;;;;;;9.55;5.28;;;-0.20;99.90;;;;;;5025105;28;20037;-71
2023/02/28 00:49:32;;;;;;;12.10;6.28;;;-0.20;99.90;;;;;;5033881;28;20122;-71
2023/02/28 00:51:57;;;;;;;11.10;5.78;;;-0.20;99.90;;;;;;5023649;28;20393;-71
2023/02/28 00:54:25;;;;;;;10.57;5.55;;;-0.40;99.90;;;;;;5035253;28;20049;-71
2023/02/28 00:56:50;;;;;;;11.10;6.13;;;-0.30;99.90;;;;;;5004933;28;20146;-71
2023/02/28 00:59:16;;;;;;;9.68;5.07;;;-0.30;99.90;;;;;;5020741;28;20160;-71
2023/02/28 01:01:43;;;;;;;9.82;5.07;;;-0.30;99.90;;;;;;5000814;28;20155;-71
2023/02/28 01:04:09;;;;;;;9.80;5.35;;;-0.30;99.90;;;;;;5024117;28;20052;-71
2023/02/28 01:06:35;;;;;;;10.15;5.15;;;-0.50;99.90;;;;;;5000717;28;20049;-71
2023/02/28 01:09:01;;;;;;;10.57;5.55;;;-0.40;99.90;;;;;;5017694;28;20077;-71
2023/02/28 01:11:27;;;;;;;11.38;6.07;;;-0.40;99.90;;;;;;5005774;28;20410;-71
2023/02/28 01:13:53;;;;;;;12.73;6.22;;;-0.50;99.90;;;;;;5012409;28;20132;-72
2023/02/28 01:16:18;;;;;;;10.15;5.60;;;-0.50;99.90;;;;;;5024095;28;20060;-71
2023/02/28 01:18:44;;;;;;;13.15;6.38;;;-0.60;99.90;;;;;;5021784;28;20471;-71
2023/02/28 01:21:12;;;;;;;10.13;5.07;;;-0.60;99.90;;;;;;5012497;28;20041;-71
2023/02/28 01:23:38;;;;;;;10.30;5.15;;;-0.60;99.90;;;;;;5017404;28;20045;-71
2023/02/28 01:26:08;;;;;;;8.70;5.00;;;-0.40;99.90;;;;;;5017359;28;20137;-71
2023/02/28 01:28:34;;;;;;;15.05;5.82;;;-0.50;99.90;;;;;;4995142;28;20050;-71
2023/02/28 01:31:00;;;;;;;9.85;5.82;;;-0.50;99.90;;;;;;5027625;28;20053;-71
2023/02/28 01:33:26;;;;;;;10.45;5.38;;;-0.50;99.90;;;;;;5025668;28;20051;-71
2023/02/28 01:36:06;;;;;;;13.38;5.10;;;-0.60;99.90;;;;;;5028175;28;20042;-71
2023/02/28 01:38:33;;;;;;;12.00;5.60;;;-0.60;99.90;;;;;;4997141;28;20112;-71
2023/02/28 01:40:59;;;;;;;10.88;6.30;;;-0.50;99.90;;;;;;5009819;28;20056;-71
2023/02/28 01:43:51;;;;;;;13.68;7.30;;;-0.50;99.90;;;;;;5006487;28;20033;-71
2023/02/28 01:46:17;;;;;;;10.43;5.82;;;-0.50;99.90;;;;;;4991329;28;20486;-71
2023/02/28 01:48:44;;;;;;;10.68;5.03;;;-0.50;99.90;;;;;;5012904;28;20049;-71
2023/02/28 01:51:13;;;;;;;9.98;4.32;;;-0.40;99.90;;;;;;5023396;28;20470;-71
2023/02/28 01:53:43;;;;;;;10.65;5.47;;;-0.50;99.90;;;;;;4984007;28;20064;-71
2023/02/28 01:56:10;;;;;;;13.98;6.25;;;-0.60;99.90;;;;;;5006584;28;20107;-71
2023/02/28 01:58:37;;;;;;;12.48;6.00;;;-0.60;99.90;;;;;;4996658;28;20052;-71
2023/02/28 02:01:03;;;;;;;10.30;5.20;;;-0.60;99.90;;;;;;5021935;28;20049;-71
2023/02/28 02:03:29;;;;;;;10.20;5.38;;;-0.60;99.90;;;;;;5026371;28;20038;-71
2023/02/28 02:05:55;;;;;;;10.38;5.18;;;-0.60;99.90;;;;;;4993476;28;20045;-71
2023/02/28 02:08:26;;;;;;;9.90;5.00;;;-0.70;99.90;;;;;;5022510;28;20061;-71
2023/02/28 02:10:56;;;;;;;12.35;5.32;;;-0.60;99.90;;;;;;5026800;28;20116;-71
2023/02/28 02:13:39;;;;;;;9.00;5.20;;;-0.50;99.90;;;;;;5024914;28;20056;-71
2023/02/28 02:16:11;;;;;;;10.18;5.43;;;-0.60;99.90;;;;;;5025888;28;20049;-71
2023/02/28 02:18:42;;;;;;;10.70;5.20;;;-0.70;99.90;;;;;;5030247;28;20566;-71
2023/02/28 02:21:45;;;;;;;10.07;5.43;;;-0.60;99.90;;;;;;5032129;28;20485;-71
2023/02/28 02:24:21;;;;;;;11.05;5.25;;;-0.80;99.90;;;;;;5007576;28;20096;-71
2023/02/28 02:26:58;;;;;;;8.38;5.10;;;-0.60;99.90;;;;;;5013403;28;20042;-71
2023/02/28 02:29:36;;;;;;;9.68;4.82;;;-0.60;99.90;;;;;;5025793;28;20041;-71
2023/02/28 02:32:05;;;;;;;19.10;5.25;;;-0.50;99.90;;;;;;5026971;28;20659;-71
2023/02/28 02:34:37;;;;;;;8.60;4.72;;;-0.50;99.90;;;;;;5016977;28;20049;-71
2023/02/28 02:37:17;;;;;;;9.80;4.47;;;-0.60;99.90;;;;;;5014221;28;20058;-71
2023/02/28 02:40:15;;;;;;;10.93;6.10;;;-0.70;99.90;;;;;;5003338;28;20049;-72
2023/02/28 02:42:50;;;;;;;;;;;-0.70;99.90;;;;;;5018152;28;20045;-71
2023/02/28 02:45:35;;;;;;;11.65;4.63;;;-0.50;99.90;;;;;;5031830;28;19967;-71
2023/02/28 02:48:02;;;;;;;12.15;5.18;;;-0.50;99.90;;;;;;5010173;28;20041;-71
2023/02/28 02:50:34;;;;;;;10.85;5.05;;;-0.50;99.90;;;;;;5007122;28;20451;-72
2023/02/28 02:53:00;;;;;;;9.00;4.63;;;-0.60;99.90;;;;;;4988820;28;20107;-71
2023/02/28 02:55:26;;;;;;;10.65;4.70;;;-0.50;99.90;;;;;;5002571;28;20108;-71
2023/02/28 02:57:55;;;;;;;7.65;4.55;;;-0.40;99.90;;;;;;4989739;28;20049;-71
2023/02/28 03:00:23;;;;;;;7.95;4.25;;;-0.30;99.90;;;;;;5020988;28;20684;-71
2023/02/28 03:02:49;;;;;;;9.77;4.80;;;-0.30;99.90;;;;;;5012797;28;20059;-71
2023/02/28 03:05:24;;;;;;;8.10;4.30;;;-0.20;99.90;;;;;;4983530;28;20046;-71
2023/02/28 03:07:50;;;;;;;9.70;4.63;;;-0.10;99.90;;;;;;5025879;28;20482;-71
2023/02/28 03:10:46;;;;;;;11.25;4.90;;;-0.20;99.90;;;;;;5035578;28;20085;-71
2023/02/28 03:13:14;;;;;;;6.82;4.07;;;-0.20;99.90;;;;;;5022823;28;20459;-71
2023/02/28 03:15:46;;;;;;;;;;;-0.30;99.90;;;;;;5032160;28;20870;-71
2023/02/28 03:18:28;;;;;;;8.55;3.75;;;-0.20;99.90;;;;;;5039745;28;19912;-71
2023/02/28 03:21:00;;;;;;;7.60;4.40;;;-0.20;99.90;;;;;;5012771;28;20045;-71
2023/02/28 03:23:42;;;;;;;14.70;5.70;;;-0.20;99.90;;;;;;5027561;28;20080;-71
2023/02/28 03:26:13;;;;;;;10.38;4.35;;;-0.30;99.90;;;;;;5015581;28;20041;-71
2023/02/28 03:28:44;;;;;;;9.23;4.55;;;-0.30;99.90;;;;;;5034211;28;20045;-71
2023/02/28 03:31:25;;;;;;;7.82;4.55;;;-0.20;99.90;;;;;;5019141;28;20065;-71
2023/02/28 03:33:54;;;;;;;11.52;4.43;;;-0.20;99.90;;;;;;5032050;28;20057;-71
2023/02/28 03:36:32;;;;;;;8.43;4.38;;;-0.20;99.90;;;;;;5011070;28;20131;-71
2023/02/28 03:39:02;;;;;;;10.20;4.20;;;-0.10;99.90;;;;;;5046044;28;20389;-71
2023/02/28 03:41:40;;;;;;;7.15;4.22;;;-0.10;99.90;;;;;;5030151;28;20063;-71
2023/02/28 03:44:08;;;;;;;;;;;0.00;99.90;;;;;;5031042;28;20502;-71
2023/02/28 03:46:36;;;;;;;;;;;-0.20;99.90;;;;;;5000840;28;19995;-71
2023/02/28 03:49:03;;;;;;;7.43;3.97;;;0.00;99.90;;;;;;5060042;28;19913;-71
2023/02/28 03:51:28;;;;;;;9.70;4.25;;;-0.10;99.90;;;;;;5026763;28;20080;-71
2023/02/28 03:53:59;;;;;;;7.25;4.15;;;0.00;99.90;;;;;;5023562;28;20081;-71
2023/02/28 03:57:23;;;;;;;8.25;3.88;;;0.00;99.90;;;;;;4986000;28;20451;-71
2023/02/28 04:00:23;;;;;;;10.43;4.05;;;-0.20;99.90;;;;;;5047168;28;20068;-71
2023/02/28 04:02:52;;;;;;;8.90;3.92;;;-0.20;99.90;;;;;;5010173;28;20041;-71
2023/02/28 04:05:21;;;;;;;6.43;3.78;;;-0.10;99.90;;;;;;5002941;28;20410;-71
2023/02/28 04:07:48;;;;;;;8.35;4.72;;;-0.20;99.90;;;;;;5003064;28;20092;-71
2023/02/28 04:10:14;;;;;;;7.93;4.00;;;-0.20;99.90;;;;;;5020172;28;20746;-71
2023/02/28 04:12:40;;;;;;;8.35;4.13;;;-0.20;99.90;;;;;;5032349;28;20094;-71
2023/02/28 04:15:06;;;;;;;10.25;4.35;;;-0.30;99.90;;;;;;5010278;28;20479;-71
2023/02/28 04:17:32;;;;;;;8.70;4.43;;;-0.20;99.90;;;;;;5023095;28;20131;-71
2023/02/28 04:19:58;;;;;;;8.40;3.92;;;-0.10;99.90;;;;;;4987178;28;20092;-71
2023/02/28 04:22:26;;;;;;;7.50;3.90;;;0.10;99.90;;;;;;4993469;28;20122;-71
2023/02/28 04:24:54;;;;;;;8.00;4.22;;;-0.20;99.90;;;;;;5016686;28;20103;-71
2023/02/28 04:27:21;;;;;;;6.80;4.40;;;-0.30;99.90;;;;;;5003912;28;20041;-71
2023/02/28 04:29:46;;;;;;;7.63;4.47;;;-0.40;99.90;;;;;;5025610;28;20049;-71
2023/02/28 04:32:13;;;;;;;11.93;5.60;;;-0.40;99.90;;;;;;5027527;28;20351;-71
2023/02/28 04:34:39;;;;;;;6.30;3.80;;;-0.30;99.90;;;;;;5028236;28;20053;-71
2023/02/28 04:37:05;;;;;;;10.85;4.53;;;-0.30;99.90;;;;;;5033752;28;20108;-71
2023/02/28 04:39:34;;;;;;;10.02;5.00;;;-0.30;99.90;;;;;;5022103;28;20779;-71
2023/02/28 04:42:00;;;;;;;11.00;4.65;;;-0.40;99.90;;;;;;5007902;28;20057;-71
2023/02/28 04:44:26;;;;;;;8.30;5.15;;;-0.40;99.90;;;;;;5024084;28;20045;-72
2023/02/28 04:46:54;;;;;;;12.80;4.82;;;-0.40;99.90;;;;;;5008905;28;20548;-71
2023/02/28 04:49:20;;;;;;;10.57;4.40;;;-0.40;99.90;;;;;;5024534;28;20191;-71
2023/02/28 04:51:46;;;;;;;8.63;4.90;;;-0.40;99.90;;;;;;5017723;28;20564;-71
2023/02/28 04:54:13;;;;;;;8.07;4.57;;;-0.50;99.90;;;;;;5038364;28;20107;-71
2023/02/28 04:56:38;;;;;;;7.80;4.72;;;-0.60;99.90;;;;;;5016434;28;20080;-71
2023/02/28 04:59:04;;;;;;;9.52;4.13;;;-0.50;99.90;;;;;;5012672;28;20447;-71
2023/02/28 05:01:32;;;;;;;8.43;4.35;;;-0.60;99.90;;;;;;5027771;28;20057;-71
2023/02/28 05:03:58;;;;;;;10.77;5.07;;;-0.60;99.90;;;;;;4995091;28;20041;-71
2023/02/28 05:06:26;;;;;;;8.35;4.70;;;-0.60;99.90;;;;;;5013585;28;20104;-71
2023/02/28 05:08:52;;;;;;;8.57;3.85;;;-0.70;99.90;;;;;;5004904;28;20190;-71
2023/02/28 05:11:20;;;;;;;10.13;4.70;;;-0.60;99.90;;;;;;5028676;28;20046;-71
2023/02/28 05:13:46;;;;;;;8.93;4.72;;;-0.70;99.90;;;;;;5016924;28;20049;-71
2023/02/28 05:16:12;;;;;;;9.52;4.63;;;-0.50;99.90;;;;;;5001083;28;20060;-71
2023/02/28 05:18:38;;;;;;;8.23;4.47;;;-0.60;99.90;;;;;;5021620;28;20041;-71
2023/02/28 05:21:04;;;;;;;8.05;4.47;;;-0.60;99.90;;;;;;5001182;28;20045;-71
2023/02/28 05:23:30;;;;;;;14.93;5.45;;;-0.70;99.90;;;;;;5009350;28;20478;-71
2023/02/28 05:25:56;;;;;;;7.75;4.63;;;-0.70;99.90;;;;;;5017833;28;20093;-71
2023/02/28 05:28:22;;;;;;;9.25;4.75;;;-0.70;99.90;;;;;;5017685;28;20050;-71
2023/02/28 05:30:47;;;;;;;10.48;4.95;;;-0.70;99.90;;;;;;5007101;28;20539;-71
2023/02/28 05:33:13;;;;;;;8.13;4.25;;;-0.50;99.90;;;;;;5003309;28;20049;-71
2023/02/28 05:35:40;;;;;;;7.90;4.43;;;-0.60;99.90;;;;;;5028946;28;20537;-71
2023/02/28 05:38:06;;;;;;;6.15;4.18;;;-0.50;99.90;;;;;;5029447;28;20387;-71
2023/02/28 05:40:33;;;;;;;11.68;4.93;;;-0.50;99.90;;;;;;5020797;28;20064;-71
2023/02/28 05:42:58;;;;;;;8.02;4.25;;;-0.50;99.90;;;;;;4995287;28;20042;-71
2023/02/28 05:45:24;;;;;;;9.30;4.93;;;-0.40;99.90;;;;;;5026346;28;20781;-71
2023/02/28 05:47:53;;;;;;;9.75;4.95;;;-0.50;99.90;;;;;;5041070;28;20049;-71
2023/02/28 05:50:19;;;;;;;9.80;4.85;;;-0.60;99.90;;;;;;4995653;28;20049;-71
2023/02/28 05:52:49;;;;;;;9.32;4.72;;;-0.60;99.90;;;;;;5027294;28;20045;-71
2023/02/28 05:55:15;;;;;;;8.20;4.60;;;-0.60;99.90;;;;;;5028545;28;20061;-71
2023/02/28 05:57:42;;;;;;;11.30;4.88;;;-0.50;99.90;;;;;;5014604;28;20053;-71
2023/02/28 06:00:08;;;;;;;12.60;5.22;;;-0.50;99.90;;;;;;5028454;28;20045;-71
2023/02/28 06:02:34;;;;;;;9.43;4.43;;;-0.70;99.90;;;;;;5023567;28;20465;-71
2023/02/28 06:05:00;;;;;;;7.38;4.20;;;-0.70;99.90;;;;;;5017500;28;20069;-71
2023/02/28 06:07:26;;;;;;;8.63;4.55;;;-0.70;99.90;;;;;;5023773;28;20120;-71
2023/02/28 06:09:51;;;;;;;9.18;5.20;;;-0.80;99.90;;;;;;5037888;28;20084;-71
2023/02/28 06:12:17;;;;;;;13.23;5.07;;;-0.80;99.90;;;;;;5026614;28;20497;-70
2023/02/28 06:14:43;;;;;;;8.63;4.53;;;-0.70;99.90;;;;;;5045309;28;20116;-70
2023/02/28 06:17:09;;;;;;;9.65;5.05;;;-0.80;99.90;;;;;;5031887;28;20053;-71
2023/02/28 06:19:36;;;;;;;10.15;4.57;;;-0.90;99.90;;;;;;5002310;28;20049;-70
2023/02/28 06:22:02;;;;;;;15.80;6.90;;;-1.00;99.90;;;;;;4997791;28;20046;-72
2023/02/28 06:24:28;;;;;;;11.52;5.22;;;-1.00;99.90;;;;;;5009534;28;20053;-73
2023/02/28 06:26:53;;;;;;;15.35;5.60;;;-0.90;99.90;;;;;;5024610;28;20037;-73
2023/02/28 06:29:19;;;;;;;11.23;5.40;;;-1.00;99.90;;;;;;5019047;28;20045;-73
2023/02/28 06:31:48;;;;;;;10.50;4.78;;;-0.90;99.90;;;;;;5020642;28;20520;-72
2023/02/28 06:34:14;;;;;;;10.95;5.55;;;-1.10;99.90;;;;;;5022322;28;20462;-73
2023/02/28 06:36:40;;;;;;;12.70;5.20;;;-1.00;99.90;;;;;;5016236;28;20060;-72
2023/02/28 06:39:06;;;;;;;11.70;4.90;;;-0.80;99.90;;;;;;5025414;28;20065;-72
2023/02/28 06:41:37;;;;;;;11.45;5.53;;;-0.90;99.90;;;;;;5006650;28;20046;-72
2023/02/28 06:44:05;;;;;;;11.20;4.90;;;-1.00;99.90;;;;;;5024557;28;20378;-72
2023/02/28 06:46:31;;;;;;;8.45;4.68;;;-1.10;99.90;;;;;;5046529;28;20038;-72
2023/02/28 06:48:57;;;;;;;8.18;4.65;;;-0.90;99.90;;;;;;5003471;28;20639;-72
2023/02/28 06:51:24;;;;;;;10.10;5.43;;;-1.00;99.90;;;;;;5019314;28;20354;-72
2023/02/28 06:53:50;;;;;;;15.52;5.65;;;-0.90;99.90;;;;;;5013791;28;20532;-72
2023/02/28 06:56:16;;;;;;;15.15;5.40;;;-1.00;99.90;;;;;;5030721;28;20059;-72
2023/02/28 06:58:45;;;;;;;11.90;5.43;;;-1.00;99.90;;;;;;5021532;28;20060;-72
2023/02/28 07:01:10;;;;;;;12.93;5.60;;;-1.00;99.90;;;;;;5019684;28;20042;-72
2023/02/28 07:03:36;;;;;;;10.90;5.22;;;-1.10;99.90;;;;;;5024987;28;20044;-72
2023/02/28 07:06:03;;;;;;;11.55;5.35;;;-1.10;99.90;;;;;;5011998;28;20038;-72
2023/02/28 07:08:29;;;;;;;10.32;5.65;;;-1.00;99.90;;;;;;5002657;28;20046;-72
2023/02/28 07:10:55;;;;;;;9.73;5.40;;;-1.10;99.90;;;;;;5025238;28;20045;-72
2023/02/28 07:13:21;;;;;;;9.63;5.53;;;-1.10;99.90;;;;;;5041463;28;20053;-72
2023/02/28 07:16:04;;;;;;;10.18;5.03;;;-1.10;99.90;;;;;;5005625;28;20435;-71
2023/02/28 07:18:29;;;;;;;8.55;4.60;;;-1.00;99.90;;;;;;5013917;28;20573;-71
2023/02/28 07:20:55;;;;;;;10.30;5.15;;;-0.90;99.90;;;;;;5018569;28;20136;-71
2023/02/28 07:23:21;;;;;;;11.68;5.70;;;-0.90;99.90;;;;;;5007899;28;20045;-72
2023/02/28 07:25:47;;;;;;;11.05;5.20;;;-0.70;99.90;;;;;;5036716;28;20041;-71
2023/02/28 07:28:13;;;;;;;10.50;4.90;;;-0.50;99.90;;;;;;5003381;28;20056;-72
2023/02/28 07:30:39;;;;;;;10.93;4.72;;;-0.60;99.90;;;;;;5008897;28;20052;-71
2023/02/28 07:33:05;;;;;;;9.32;5.32;;;-0.40;99.90;;;;;;5015627;28;20056;-72
2023/02/28 07:35:31;;;;;;;12.50;5.60;;;-0.40;99.90;;;;;;5021518;28;20091;-72
2023/02/28 07:37:59;;;;;;;8.98;3.97;;;-0.40;99.90;;;;;;5024776;28;20053;-72
2023/02/28 07:40:25;;;;;;;7.97;4.28;;;-0.30;99.90;;;;;;5020866;28;20050;-72
2023/02/28 07:42:53;;;;;;;10.70;4.35;;;-0.30;99.90;;;;;;5025341;28;20466;-72
2023/02/28 07:45:19;;;;;;;11.75;5.05;;;-0.30;99.90;;;;;;5033687;28;20045;-72
2023/02/28 07:47:45;;;;;;;9.65;4.63;;;-0.40;99.90;;;;;;5008775;28;20179;-72
2023/02/28 07:50:13;;;;;;;7.45;3.72;;;-0.30;99.90;;;;;;5026152;28;20120;-72
2023/02/28 07:52:39;;;;;;;11.90;4.10;;;-0.30;99.90;;;;;;5010454;28;20056;-72
2023/02/28 07:55:06;;;;;;;11.32;4.40;;;-0.30;99.90;;;;;;5000736;28;20050;-72
2023/02/28 07:57:32;;;;;;;12.77;3.85;;;-0.20;99.90;;;;;;4997228;28;20060;-72
2023/02/28 07:59:58;;;;;;;10.48;3.88;;;-0.20;99.90;;;;;;5011069;28;20046;-72
2023/02/28 08:02:23;;;;;;;8.38;4.10;;;-0.20;99.90;;;;;;5015430;28;20184;-72
2023/02/28 08:04:49;;;;;;;7.95;3.90;;;-0.10;99.90;;;;;;5008127;28;20805;-72
2023/02/28 08:07:16;;;;;;;6.57;3.65;;;0.00;99.90;;;;;;5001631;28;20104;-72
2023/02/28 08:09:42;;;;;;;7.25;3.50;;;-0.10;99.90;;;;;;5001419;28;20056;-72
2023/02/28 08:12:09;;;;;;;11.65;4.00;;;0.10;99.90;;;;;;5017915;28;20057;-72
2023/02/28 08:14:35;;;;;;;14.30;3.58;;;0.10;99.90;;;;;;5007816;28;20042;-73
2023/02/28 08:17:01;;;;;;;8.82;4.80;;;0.10;99.90;;;;;;5007077;28;20513;-72
2023/02/28 08:19:27;;;;;;;7.75;3.95;;;0.10;99.90;;;;;;5007568;28;20058;-72
2023/02/28 08:21:52;;;;;;;6.50;3.30;;;0.20;99.90;;;;;;4995855;28;20049;-72
2023/02/28 08:24:18;;;;;;;6.43;3.72;;;0.10;99.90;;;;;;5007014;28;20064;-72
2023/02/28 08:26:44;;;;;;;6.80;3.67;;;0.30;99.90;;;;;;5022791;28;20049;-72
2023/02/28 08:29:10;;;;;;;6.68;4.22;;;0.40;99.90;;;;;;5019568;28;20054;-72
2023/02/28 08:31:35;;;;;;;10.75;5.20;;;0.80;99.90;;;;;;5004858;28;20049;-72
2023/02/28 08:34:08;;;;;;;8.30;4.65;;;1.00;99.90;;;;;;5020223;28;20050;-72
2023/02/28 08:36:34;;;;;;;9.27;4.50;;;1.10;99.90;;;;;;4994347;28;20053;-72
2023/02/28 08:38:59;;;;;;;7.72;3.78;;;1.10;99.90;;;;;;5026776;28;20115;-72
2023/02/28 08:41:25;;;;;;;8.35;4.13;;;1.20;99.90;;;;;;5010771;28;20046;-72
2023/02/28 08:43:51;;;;;;;9.15;3.90;;;1.30;99.90;;;;;;5021299;28;20041;-72
2023/02/28 08:46:17;;;;;;;6.82;3.60;;;1.20;99.90;;;;;;4971644;28;20037;-72
2023/02/28 08:48:43;;;;;;;7.45;3.50;;;1.10;99.90;;;;;;4980710;28;20084;-72
2023/02/28 08:51:11;;;;;;;6.22;3.63;;;1.20;99.90;;;;;;5020724;28;20048;-73
2023/02/28 08:53:37;;;;;;;12.45;4.47;;;1.40;99.90;;;;;;5017939;28;20042;-72
2023/02/28 08:56:04;;;;;;;6.65;3.47;;;1.40;99.90;;;;;;5004809;28;20136;-72
2023/02/28 08:58:30;;;;;;;8.70;4.05;;;1.40;99.90;;;;;;5039376;28;21070;-72
2023/02/28 09:00:56;;;;;;;4.97;3.13;;;1.50;99.90;;;;;;5013691;28;20098;-72
2023/02/28 09:03:22;;;;;;;6.53;3.30;;;1.60;99.90;;;;;;5004283;28;20042;-72
2023/02/28 09:05:57;;;;;;;7.10;3.28;;;1.80;99.90;;;;;;5009883;28;20057;-72
2023/02/28 09:08:28;;;;;;;7.20;3.22;;;1.90;99.90;;;;;;5046516;28;20042;-72
2023/02/28 09:10:55;;;;;;;7.50;2.65;;;2.00;99.90;;;;;;5008884;28;20049;-72
2023/02/28 09:13:21;;;;;;;5.40;2.75;;;2.10;99.90;;;;;;5009242;28;20403;-72
2023/02/28 09:15:47;;;;;;;6.93;2.95;;;2.20;99.90;;;;;;5004551;28;20056;-72
2023/02/28 09:18:14;;;;;;;5.50;2.42;;;2.30;99.90;;;;;;5020938;28;20053;-72
2023/02/28 09:20:44;;;;;;;8.45;3.13;;;2.40;99.90;;;;;;5023759;28;20370;-73
2023/02/28 09:23:11;;;;;;;6.47;2.88;;;2.50;99.90;;;;;;4988099;28;20080;-73
2023/02/28 09:25:44;;;;;;;5.20;2.57;;;2.70;99.90;;;;;;5025110;28;20546;-73
2023/02/28 09:28:11;;;;;;;9.15;2.78;;;2.80;99.90;;;;;;5026737;28;20300;-73
2023/02/28 09:30:37;;;;;;;7.35;3.10;;;3.00;99.90;;;;;;5007042;28;20138;-73
2023/02/28 09:33:06;;;;;;;5.70;3.05;;;3.10;99.90;;;;;;4973834;28;20050;-73
2023/02/28 09:35:32;;;;;;;5.68;3.35;;;3.10;99.90;;;;;;5018945;28;20041;-73
2023/02/28 09:37:58;;;;;;;7.32;3.63;;;3.30;99.90;;;;;;5001881;28;20494;-73
2023/02/28 09:40:24;;;;;;;8.18;3.42;;;3.40;99.90;;;;;;5034497;28;20069;-73
2023/02/28 09:42:52;;;;;;;7.72;3.25;;;3.50;99.90;;;;;;5022831;28;20045;-73
2023/02/28 09:45:42;;;;;;;9.07;3.70;;;3.60;99.90;;;;;;5010121;28;20037;-72
2023/02/28 09:48:15;;;;;;;9.82;3.38;;;3.70;99.90;;;;;;5004422;28;20046;-72
2023/02/28 09:50:44;;;;;;;7.68;2.72;;;4.00;99.90;;;;;;5000486;28;20052;-72
2023/02/28 09:53:34;;;;;;;6.85;2.65;;;4.00;99.90;;;;;;5023155;28;20049;-72
2023/02/28 09:56:26;;;;;;;6.45;3.05;;;4.30;99.90;;;;;;5030103;28;20489;-72
2023/02/28 09:59:01;;;;;;;8.30;2.70;;;4.30;99.90;;;;;;5024481;28;20417;-72
2023/02/28 10:01:45;;;;;;;5.68;2.05;;;4.60;99.90;;;;;;5023440;28;20178;-72
2023/02/28 10:04:14;;;;;;;6.03;2.80;;;4.70;99.90;;;;;;5023575;28;20689;-73
2023/02/28 10:06:41;;;;;;;;;;;4.80;99.90;;;;;;5025623;28;20057;-72
2023/02/28 10:09:10;;;;;;;5.60;3.13;;;5.00;96.20;;;;;;5022899;28;19924;-72
2023/02/28 10:11:36;;;;;;;6.40;3.58;;;5.00;95.30;;;;;;5010003;28;20892;-72
2023/02/28 10:14:06;;;;;;;6.50;2.55;;;5.20;96.90;;;;;;4996893;28;20046;-72
2023/02/28 10:16:34;;;;;;;6.85;2.55;;;5.40;95.60;;;;;;5022828;28;20478;-73
2023/02/28 10:19:53;;;;;;;4.82;2.17;;;5.50;91.10;;;;;;5018124;28;20054;-73
2023/02/28 10:22:28;;;;;;;5.47;2.60;;;5.50;91.80;;;;;;5006018;28;20136;-73
2023/02/28 10:24:56;;;;;;;4.25;2.20;;;5.60;90.00;;;;;;5008250;28;20042;-73
2023/02/28 10:27:28;;;;;;;3.88;1.92;;;5.60;89.90;;;;;;5028590;28;20156;-73
2023/02/28 10:29:59;;;;;;;7.25;2.22;;;5.90;89.60;;;;;;5004517;28;20057;-73
2023/02/28 10:32:30;;;;;;;6.80;1.92;;;6.20;81.70;;;;;;5031339;28;20144;-73
2023/02/28 10:35:00;;;;;;;5.30;2.25;;;6.50;79.50;;;;;;5031892;28;20049;-71
2023/02/28 10:37:28;;;;;;;4.03;2.03;;;6.30;76.60;;;;;;5022268;28;20057;-73
2023/02/28 10:39:53;;;;;;;3.78;1.55;;;6.50;76.70;;;;;;5003817;28;20054;-73
2023/02/28 10:42:27;;;;;;;4.25;1.80;;;6.40;77.10;;;;;;5031316;28;20505;-73
2023/02/28 10:45:15;;;;;;;5.18;1.60;;;6.70;72.50;;;;;;5022528;28;20358;-73
2023/02/28 10:47:58;;;;;;;5.28;2.15;;;6.60;73.90;;;;;;5012016;28;20042;-73
2023/02/28 10:50:34;;;;;;;12.35;2.30;;;6.60;70.70;;;;;;5023241;28;20374;-73
2023/02/28 10:53:25;;;;;;;4.15;1.90;;;6.80;69.30;;;;;;5005920;28;20088;-73
2023/02/28 10:56:14;;;;;;;3.38;1.85;;;6.90;72.00;;;;;;5004985;28;20050;-72
2023/02/28 10:59:02;;;;;;;5.85;1.90;;;6.80;67.50;;;;;;5008506;28;20049;-74
2023/02/28 11:01:35;;;;;;;3.97;1.92;;;7.30;67.30;;;;;;5025403;28;20041;-73
2023/02/28 11:04:00;;;;;;;4.72;1.88;;;7.80;66.80;;;;;;5015013;28;20053;-73
2023/02/28 11:06:31;;;;;;;3.33;2.00;;;7.70;62.80;;;;;;5009554;28;20046;-74
2023/02/28 11:09:06;;;;;;;4.30;1.80;;;8.00;66.40;;;;;;5006681;28;20592;-73
2023/02/28 11:11:42;;;;;;;5.30;2.45;;;8.70;62.50;;;;;;5020571;28;20038;-74
2023/02/28 11:14:26;;;;;;;3.85;2.00;;;8.50;57.00;;;;;;4992611;28;20045;-76
2023/02/28 11:16:54;;;;;;;6.18;2.42;;;10.40;57.90;;;;;;5016412;28;20046;-73
2023/02/28 11:19:25;;;;;;;4.43;1.85;;;12.20;48.40;;;;;;5025642;28;20134;-73
2023/02/28 11:21:54;;;;;;;4.20;2.20;;;13.10;44.20;;;;;;4998103;28;20041;-71
2023/02/28 11:24:30;;;;;;;5.45;2.10;;;14.00;41.50;;;;;;5014821;28;20102;-72
2023/02/28 11:26:56;;;;;;;2.72;1.80;;;14.50;40.60;;;;;;5032769;28;20069;-72
2023/02/28 11:29:23;;;;;;;4.53;1.92;;;14.00;41.80;;;;;;4996575;28;20533;-72
2023/02/28 11:32:01;;;;;;;2.65;1.80;;;14.40;40.50;;;;;;5005544;28;20132;-73
2023/02/28 11:34:27;;;;;;;6.37;2.10;;;14.40;39.80;;;;;;4996415;28;20060;-73
2023/02/28 11:36:54;;;;;;;4.88;2.20;;;14.50;39.50;;;;;;5006532;28;20683;-74
2023/02/28 11:39:19;;;;;;;3.50;1.70;;;15.90;38.40;;;;;;5013116;28;20054;-73
2023/02/28 11:42:12;;;;;;;3.83;1.70;;;15.70;36.70;;;;;;5017430;28;20041;-74
2023/02/28 11:45:07;;;;;;;3.83;1.80;;;15.60;36.90;;;;;;5022922;28;20376;-72
2023/02/28 11:47:48;;;;;;;4.00;1.95;;;15.50;38.80;;;;;;5016631;28;20128;-72
2023/02/28 11:50:32;;;;;;;4.05;1.80;;;15.70;36.90;;;;;;5011091;28;20050;-72
2023/02/28 11:53:01;;;;;;;4.30;1.95;;;15.60;36.40;;;;;;5018097;28;20443;-74
2023/02/28 11:55:45;;;;;;;3.45;1.60;;;14.80;38.10;;;;;;5042498;28;20055;-74
2023/02/28 11:58:27;;;;;;;4.03;1.73;;;14.80;39.40;;;;;;5018077;28;20117;-74
2023/02/28 12:01:24;;;;;;;4.50;1.83;;;14.60;37.50;;;;;;5005404;28;20156;-74
2023/02/28 12:03:56;;;;;;;6.32;2.10;;;12.30;40.20;;;;;;5023307;28;20057;-74
2023/02/28 12:06:48;;;;;;;4.10;2.05;;;11.30;42.50;;;;;;5025062;28;20044;-74
2023/02/28 12:09:40;;;;;;;6.53;2.17;;;11.80;43.00;;;;;;5023882;28;20137;-74
2023/02/28 12:12:12;;;;;;;2.75;1.65;;;13.60;39.30;;;;;;5007267;28;20596;-74
2023/02/28 12:15:03;;;;;;;5.00;2.03;;;13.90;40.40;;;;;;5007062;28;20136;-74
2023/02/28 12:17:37;;;;;;;4.22;2.10;;;15.30;37.00;;;;;;5007177;28;20515;-74
2023/02/28 12:20:30;;;;;;;3.70;2.10;;;14.90;37.60;;;;;;5026713;28;20053;-74
2023/02/28 12:23:29;;;;;;;3.08;1.60;;;13.60;39.70;;;;;;5003556;28;20045;-73
2023/02/28 12:26:23;;;;;;;3.97;1.70;;;13.60;42.50;;;;;;5023032;28;20479;-74
2023/02/28 12:29:02;;;;;;;3.75;1.88;;;13.80;39.70;;;;;;5015934;28;20037;-74
2023/02/28 12:31:30;;;;;;;4.45;1.63;;;14.40;40.80;;;;;;5010943;28;20041;-75
2023/02/28 12:34:16;;;;;;;;;;;15.00;38.70;;;;;;5005888;28;20057;-75
2023/02/28 12:36:41;;;;;;;4.07;2.08;;;15.90;37.70;;;;;;5038458;28;20011;-75
2023/02/28 12:39:16;;;;;;;3.38;1.63;;;15.80;36.00;;;;;;5026263;28;21462;-73
2023/02/28 12:42:02;;;;;;;4.00;2.03;;;16.70;36.10;;;;;;5020768;28;20126;-75
2023/02/28 12:44:34;;;;;;;5.70;1.90;;;16.30;34.80;;;;;;5015853;28;20053;-75
2023/02/28 12:47:05;;;;;;;3.67;1.65;;;16.20;36.70;;;;;;5005412;28;20120;-75
2023/02/28 12:49:58;;;;;;;3.50;1.63;;;16.00;35.40;;;;;;5002806;28;20056;-74
2023/02/28 12:53:05;;;;;;;4.60;1.88;;;15.60;37.00;;;;;;4975808;28;20080;-74
2023/02/28 12:55:53;;;;;;;3.72;1.75;;;16.30;34.30;;;;;;4981432;28;20498;-73
2023/02/28 12:58:18;;;;;;;;;;;16.40;36.60;;;;;;5017030;28;20129;-75
2023/02/28 13:01:11;;;;;;;4.40;1.55;;;16.90;34.20;;;;;;5020348;28;20019;-75
2023/02/28 13:04:16;;;;;;;3.72;1.85;;;17.70;32.00;;;;;;5020126;28;20061;-74
2023/02/28 13:07:15;;;;;;;4.25;1.83;;;18.00;32.60;;;;;;5011369;28;20108;-75